Nearby METAR Reports

 

KHIF - Hill Afb/Ogden, Utah, USA
Distance from station: ENE 6mi, 9km
Updated: Fri, 20-Jul-2018 6:58pm MDT
Mostly cloudy
Mostly cloudy
 Wind from ESE
Wind: ESE 3 mph , 6 km/h
Temperature: 91°F , 33°C
Dew Point: 45°F , 7°C
Humidity: 20%
Barometer: 30.03 inHg , 1016.9 hPa
Clouds: Mostly cloudy
Visibility: 10 miles , 16 km
Cloud details: Mostly cloudy 13000 ft
Mostly cloudy 19000 ft
2018/07/21 00:58 KHIF 210058Z 12003KT 10SM BKN130 BKN190 33/07 A3003 RMK AO2A SLP098 T03260067
KOGD - Ogden, Utah, USA
Distance from station: NNE 9mi, 14km
Updated: Fri, 20-Jul-2018 6:53pm MDT
Clear
Clear
 Wind from varies
Wind: varies 5 mph , 7 km/h
Temperature: 91°F , 33°C
Dew Point: 45°F , 7°C
Humidity: 20%
Barometer: 30.00 inHg , 1015.9 hPa
Clouds: Clear
Visibility: 10 miles , 16 km
2018/07/21 00:53 KOGD 210053Z VRB04KT 10SM CLR 33/07 A3000 RMK AO2 SLP088 T03280067
 
KSLC - Salt Lake City, Utah, USA
Distance from station: SSE 21mi, 34km
Updated: Fri, 20-Jul-2018 6:54pm MDT
Mostly cloudy
Mostly cloudy
 Wind from NNE
Wind: NNE 5 mph , 7 km/h
Temperature: 91°F , 33°C
Dew Point: 45°F , 7°C
Humidity: 20%
Barometer: 29.97 inHg , 1014.9 hPa
Clouds: Mostly cloudy
Visibility: 10 miles , 16 km
Cloud details: Few Clouds 10000 ft
Mostly cloudy 15000 ft
Mostly cloudy 24000 ft
2018/07/21 00:54 KSLC 210054Z 03004KT 10SM FEW100 BKN150 BKN240 33/07 A2997 RMK AO2 SLP084 T03330072
KLGU - Logan, Utah, USA
Distance from station: NNE 50mi, 80km
Updated: Fri, 20-Jul-2018 6:51pm MDT
Clear
Clear
 Wind from SSW
Wind: SSW 8 mph , 13 km/h
Temperature: 93°F , 34°C
Dew Point: 45°F , 7°C
Humidity: 19%
Barometer: 29.99 inHg , 1015.6 hPa
Clouds: Clear
Visibility: 10 miles , 16 km
2018/07/21 00:51 KLGU 210051Z AUTO 21007KT 10SM CLR 34/07 A2999 RMK AO2 SLP095 T03440067
 
K36U - Heber/Russ Mcdon, Utah, USA
Distance from station: SE 53mi, 85km
Updated: Wed, 11-Oct-2017 6:50pm MDT
NOT Current
Clear
Clear
 Wind from SSW
Wind: SSW 10 mph , 17 km/h, Gust: 18 mph , 30 km/h
Temperature: 63°F , 17°C
Dew Point: 16°F , -9°C
Humidity: 16%
Barometer: 29.87 inHg , 1011.5 hPa
Clouds: Clear
Visibility: 10 miles , 16 km
2017/10/12 00:50 K36U 120050Z AUTO 21009G16KT 10SM CLR 17/M09 A2987 RMK AO2
KEVW - Evanston, Wyoming, USA
Distance from station: ENE 55mi, 89km
Updated: Fri, 20-Jul-2018 6:53pm MDT
Clear
Clear
 Wind from ESE
Wind: ESE 6 mph , 9 km/h
Temperature: 81°F , 27°C
Dew Point: 37°F , 3°C
Humidity: 21%
Barometer: 30.26 inHg , 1024.7 hPa
Clouds: Clear
Visibility: 10 miles , 16 km
2018/07/21 00:53 KEVW 210053Z AUTO 11005KT 10SM CLR 27/03 A3026 RMK AO2 SLP143 T02670033
 
KPVU - Provo Muni, Utah, USA
Distance from station: SSE 62mi, 100km
Updated: Fri, 20-Jul-2018 6:56pm MDT
Mostly cloudy
Mostly cloudy
 Wind from WSW
Wind: WSW 5 mph , 7 km/h
Temperature: 90°F , 32°C
Dew Point: 61°F , 16°C
Humidity: 38%
Barometer: 30.02 inHg , 1016.6 hPa
Clouds: Mostly cloudy
Visibility: 10 miles , 16 km
Cloud details: Mostly cloudy 12000 ft
2018/07/21 00:56 KPVU 210056Z 25004KT 10SM BKN120 32/16 A3002 RMK AO2 SLP103 T03170161 $
KDPG - Dugway Prvg Grou, Utah, USA
Distance from station: SW 75mi, 121km
Updated: Thu, 19-Jul-2018 4:57pm MDT
NOT Current
Partly cloudy
Partly cloudy
 Wind from N
Wind: N 8 mph , 13 km/h
Temperature: 102°F , 39°C
Dew Point: 23°F , -5°C
Humidity: 6%
Barometer: 30.01 inHg , 1016.3 hPa
Clouds: Partly cloudy
Visibility: 35 miles , 56 km
Cloud details: Few Clouds 14000 ft
Few Clouds 18000 ft
Partly cloudy 21000 ft
2018/07/19 22:57 KDPG 192257Z 36007KT 35SM FEW140 FEW180 SCT210 39/M05 A3001 RMK SLP097 LAST T03871046
 
KENV - Wendover (aut), Utah, USA
Distance from station: WSW 105mi, 169km
Updated: Fri, 20-Jul-2018 6:56pm MDT
Clear
Clear
 Wind from SSE
Wind: SSE 7 mph , 11 km/h
Temperature: 95°F , 35°C
Dew Point: 45°F , 7°C
Humidity: 18%
Barometer: 29.97 inHg , 1014.9 hPa
Clouds: Clear
Visibility: 10 miles , 16 km
2018/07/21 00:56 KENV 210056Z AUTO 16006KT 10SM CLR 35/07 A2997 RMK AO2 SLP094 T03500067
KPUC - Price, Utah, USA
Distance from station: SE 123mi, 197km
Updated: Fri, 20-Jul-2018 6:53pm MDT
Partly cloudy
Partly cloudy
 Wind from SE
Wind: SE 7 mph , 11 km/h
Temperature: 88°F , 31°C
Dew Point: 43°F , 6°C
Humidity: 21%
Barometer: 30.13 inHg , 1020.3 hPa
Clouds: Partly cloudy
Visibility: 10 miles , 16 km
Cloud details: Partly cloudy 11000 ft
2018/07/21 00:53 KPUC 210053Z AUTO 14006KT 10SM SCT110 31/06 A3013 RMK AO2 SLP093 T03110056
 
KPIH - Pocatello, Idaho, USA
Distance from station: NNW 130mi, 208km
Updated: Fri, 20-Jul-2018 6:53pm MDT
Few Clouds
Few Clouds
 Wind from WSW
Wind: WSW 14 mph , 22 km/h
Temperature: 93°F , 34°C
Dew Point: 39°F , 4°C
Humidity: 15%
Barometer: 29.99 inHg , 1015.6 hPa
Clouds: Few Clouds
Visibility: 10 miles , 16 km
Cloud details: Few Clouds 10000 ft
2018/07/21 00:53 KPIH 210053Z 24012KT 10SM FEW100 34/04 A2999 RMK AO2 SLP105 T03390039
KBYI - Burley, Idaho, USA
Distance from station: NW 134mi, 216km
Updated: Fri, 20-Jul-2018 6:53pm MDT
Clear
Clear
 Wind from W
Wind: W 9 mph , 15 km/h
Temperature: 90°F , 32°C
Dew Point: 39°F , 4°C
Humidity: 17%
Barometer: 29.96 inHg , 1014.6 hPa
Clouds: Clear
Visibility: 10 miles , 16 km
2018/07/21 00:53 KBYI 210053Z AUTO 26008KT 10SM CLR 32/04 A2996 RMK AO2 SLP100 T03170039
 
KVEL - Vernal, Utah, USA
Distance from station: ESE 140mi, 226km
Updated: Fri, 20-Jul-2018 6:53pm MDT
Clear
Clear
 Wind from calm
Wind: Calm
Temperature: 90°F , 32°C
Dew Point: 37°F , 3°C
Humidity: 16%
Barometer: 30.09 inHg , 1019 hPa
Clouds: Clear
Visibility: 10 miles , 16 km
2018/07/21 00:53 KVEL 210053Z AUTO 00000KT 10SM CLR 32/03 A3009 RMK AO2 SLP116 T03220033
KBPI - Big Piney, Wyoming, USA
Distance from station: NE 145mi, 234km
Updated: Fri, 20-Jul-2018 6:53pm MDT
Clear
Clear
 Wind from W
Wind: W 8 mph , 13 km/h
Temperature: 84°F , 29°C
Dew Point: 41°F , 5°C
Humidity: 22%
Barometer: 30.21 inHg , 1023 hPa
Clouds: Clear
Visibility: 10 miles , 16 km
2018/07/21 00:53 KBPI 210053Z AUTO 27007KT 10SM CLR 29/05 A3021 RMK AO2 SLP130 T02940050